sensor_id;sensor_type;location;lat;lon;timestamp;P1;durP1;ratioP1;P2;durP2;ratioP2
47365;SDS011;33105;47.964;7.982;2023-03-12T00:01:15;6.40;;;1.85;;
47365;SDS011;33105;47.964;7.982;2023-03-12T00:04:23;4.47;;;1.90;;
47365;SDS011;33105;47.964;7.982;2023-03-12T00:07:25;5.20;;;1.98;;
47365;SDS011;33105;47.964;7.982;2023-03-12T00:10:27;7.15;;;2.10;;
47365;SDS011;33105;47.964;7.982;2023-03-12T00:13:32;9.20;;;2.47;;
47365;SDS011;33105;47.964;7.982;2023-03-12T00:17:19;6.28;;;2.22;;
47365;SDS011;33105;47.964;7.982;2023-03-12T00:21:40;5.35;;;2.33;;
47365;SDS011;33105;47.964;7.982;2023-03-12T00:25:36;4.22;;;1.75;;
47365;SDS011;33105;47.964;7.982;2023-03-12T00:29:10;3.22;;;1.98;;
47365;SDS011;33105;47.964;7.982;2023-03-12T00:32:12;7.65;;;2.50;;
47365;SDS011;33105;47.964;7.982;2023-03-12T00:35:23;5.47;;;2.28;;
47365;SDS011;33105;47.964;7.982;2023-03-12T00:38:25;6.40;;;2.00;;
47365;SDS011;33105;47.964;7.982;2023-03-12T00:41:27;3.67;;;2.05;;
47365;SDS011;33105;47.964;7.982;2023-03-12T00:44:33;8.68;;;2.15;;
47365;SDS011;33105;47.964;7.982;2023-03-12T00:47:34;6.07;;;1.90;;
47365;SDS011;33105;47.964;7.982;2023-03-12T00:50:35;5.47;;;1.95;;
47365;SDS011;33105;47.964;7.982;2023-03-12T00:53:37;3.80;;;2.00;;
47365;SDS011;33105;47.964;7.982;2023-03-12T00:56:41;4.60;;;2.00;;
47365;SDS011;33105;47.964;7.982;2023-03-12T00:59:42;7.13;;;2.28;;
47365;SDS011;33105;47.964;7.982;2023-03-12T01:02:44;6.13;;;1.70;;
47365;SDS011;33105;47.964;7.982;2023-03-12T01:05:45;4.65;;;1.80;;
47365;SDS011;33105;47.964;7.982;2023-03-12T01:08:46;3.80;;;1.73;;
47365;SDS011;33105;47.964;7.982;2023-03-12T01:11:48;4.05;;;1.67;;
47365;SDS011;33105;47.964;7.982;2023-03-12T01:14:49;4.13;;;1.95;;
47365;SDS011;33105;47.964;7.982;2023-03-12T01:17:50;5.97;;;1.73;;
47365;SDS011;33105;47.964;7.982;2023-03-12T01:20:52;4.75;;;1.95;;
47365;SDS011;33105;47.964;7.982;2023-03-12T01:23:53;5.93;;;1.88;;
47365;SDS011;33105;47.964;7.982;2023-03-12T01:26:56;4.63;;;1.63;;
47365;SDS011;33105;47.964;7.982;2023-03-12T01:29:57;4.28;;;1.73;;
47365;SDS011;33105;47.964;7.982;2023-03-12T01:32:59;5.15;;;1.80;;
47365;SDS011;33105;47.964;7.982;2023-03-12T01:36:00;3.28;;;1.90;;
47365;SDS011;33105;47.964;7.982;2023-03-12T01:39:02;3.65;;;2.22;;
47365;SDS011;33105;47.964;7.982;2023-03-12T01:42:04;3.35;;;1.70;;
47365;SDS011;33105;47.964;7.982;2023-03-12T01:49:09;5.88;;;2.13;;
47365;SDS011;33105;47.964;7.982;2023-03-12T01:55:45;5.13;;;1.85;;
47365;SDS011;33105;47.964;7.982;2023-03-12T01:58:48;3.60;;;1.75;;
47365;SDS011;33105;47.964;7.982;2023-03-12T02:01:53;6.30;;;2.05;;
47365;SDS011;33105;47.964;7.982;2023-03-12T02:05:10;5.57;;;1.95;;
47365;SDS011;33105;47.964;7.982;2023-03-12T02:08:34;5.47;;;1.80;;
47365;SDS011;33105;47.964;7.982;2023-03-12T02:11:41;4.07;;;2.00;;
47365;SDS011;33105;47.964;7.982;2023-03-12T02:14:43;5.03;;;2.25;;
47365;SDS011;33105;47.964;7.982;2023-03-12T02:17:45;6.13;;;1.80;;
47365;SDS011;33105;47.964;7.982;2023-03-12T02:27:48;3.53;;;2.13;;
47365;SDS011;33105;47.964;7.982;2023-03-12T02:30:50;4.68;;;2.13;;
47365;SDS011;33105;47.964;7.982;2023-03-12T02:33:54;5.38;;;2.13;;
47365;SDS011;33105;47.964;7.982;2023-03-12T02:36:56;6.53;;;2.00;;
47365;SDS011;33105;47.964;7.982;2023-03-12T02:43:21;4.05;;;2.17;;
47365;SDS011;33105;47.964;7.982;2023-03-12T02:46:23;8.18;;;2.55;;
47365;SDS011;33105;47.964;7.982;2023-03-12T02:49:26;4.25;;;2.33;;
47365;SDS011;33105;47.964;7.982;2023-03-12T02:52:29;7.03;;;2.47;;
47365;SDS011;33105;47.964;7.982;2023-03-12T02:55:36;4.32;;;2.53;;
47365;SDS011;33105;47.964;7.982;2023-03-12T02:58:38;7.00;;;2.55;;
47365;SDS011;33105;47.964;7.982;2023-03-12T03:01:39;6.05;;;2.83;;
47365;SDS011;33105;47.964;7.982;2023-03-12T03:04:41;4.75;;;2.55;;
47365;SDS011;33105;47.964;7.982;2023-03-12T03:07:43;9.27;;;3.30;;
47365;SDS011;33105;47.964;7.982;2023-03-12T03:10:49;6.80;;;2.92;;
47365;SDS011;33105;47.964;7.982;2023-03-12T03:13:53;5.30;;;3.47;;
47365;SDS011;33105;47.964;7.982;2023-03-12T03:16:56;4.95;;;2.75;;
47365;SDS011;33105;47.964;7.982;2023-03-12T03:19:57;7.80;;;3.45;;
47365;SDS011;33105;47.964;7.982;2023-03-12T03:26:12;4.57;;;2.22;;
47365;SDS011;33105;47.964;7.982;2023-03-12T03:29:14;4.30;;;2.38;;
47365;SDS011;33105;47.964;7.982;2023-03-12T03:32:17;6.57;;;2.53;;
47365;SDS011;33105;47.964;7.982;2023-03-12T03:35:19;5.20;;;2.50;;
47365;SDS011;33105;47.964;7.982;2023-03-12T03:38:22;3.83;;;2.40;;
47365;SDS011;33105;47.964;7.982;2023-03-12T03:41:24;3.75;;;1.70;;
47365;SDS011;33105;47.964;7.982;2023-03-12T03:44:27;4.28;;;2.15;;
47365;SDS011;33105;47.964;7.982;2023-03-12T03:47:42;4.43;;;2.22;;
47365;SDS011;33105;47.964;7.982;2023-03-12T03:51:01;3.28;;;1.90;;
47365;SDS011;33105;47.964;7.982;2023-03-12T03:54:07;2.70;;;1.63;;
47365;SDS011;33105;47.964;7.982;2023-03-12T03:57:10;3.40;;;1.67;;
47365;SDS011;33105;47.964;7.982;2023-03-12T04:00:12;3.70;;;1.65;;
47365;SDS011;33105;47.964;7.982;2023-03-12T04:03:19;4.22;;;1.98;;
47365;SDS011;33105;47.964;7.982;2023-03-12T04:06:21;3.75;;;1.67;;
47365;SDS011;33105;47.964;7.982;2023-03-12T04:09:23;2.85;;;1.85;;
47365;SDS011;33105;47.964;7.982;2023-03-12T04:12:27;3.85;;;1.90;;
47365;SDS011;33105;47.964;7.982;2023-03-12T04:15:52;4.82;;;1.60;;
47365;SDS011;33105;47.964;7.982;2023-03-12T04:18:54;2.38;;;1.73;;
47365;SDS011;33105;47.964;7.982;2023-03-12T04:21:57;2.22;;;1.75;;
47365;SDS011;33105;47.964;7.982;2023-03-12T04:24:59;3.17;;;1.85;;
47365;SDS011;33105;47.964;7.982;2023-03-12T04:28:00;3.50;;;2.20;;
47365;SDS011;33105;47.964;7.982;2023-03-12T04:31:03;3.47;;;1.92;;
47365;SDS011;33105;47.964;7.982;2023-03-12T04:34:14;4.93;;;1.77;;
47365;SDS011;33105;47.964;7.982;2023-03-12T04:37:20;3.95;;;1.55;;
47365;SDS011;33105;47.964;7.982;2023-03-12T04:40:22;3.50;;;1.92;;
47365;SDS011;33105;47.964;7.982;2023-03-12T04:43:24;4.45;;;2.22;;
47365;SDS011;33105;47.964;7.982;2023-03-12T04:46:26;6.35;;;2.30;;
47365;SDS011;33105;47.964;7.982;2023-03-12T04:49:30;3.05;;;1.60;;
47365;SDS011;33105;47.964;7.982;2023-03-12T04:52:37;3.95;;;1.60;;
47365;SDS011;33105;47.964;7.982;2023-03-12T04:55:40;2.63;;;1.33;;
47365;SDS011;33105;47.964;7.982;2023-03-12T04:58:42;2.38;;;1.45;;
47365;SDS011;33105;47.964;7.982;2023-03-12T05:01:44;2.83;;;1.50;;
47365;SDS011;33105;47.964;7.982;2023-03-12T05:04:54;3.65;;;1.70;;
47365;SDS011;33105;47.964;7.982;2023-03-12T05:07:57;4.68;;;2.00;;
47365;SDS011;33105;47.964;7.982;2023-03-12T05:10:59;1.83;;;1.40;;
47365;SDS011;33105;47.964;7.982;2023-03-12T05:14:01;2.40;;;1.52;;
47365;SDS011;33105;47.964;7.982;2023-03-12T05:17:17;3.20;;;1.58;;
47365;SDS011;33105;47.964;7.982;2023-03-12T05:20:19;2.33;;;1.23;;
47365;SDS011;33105;47.964;7.982;2023-03-12T06:27:12;0.75;;;0.40;;
47365;SDS011;33105;47.964;7.982;2023-03-12T06:30:14;0.55;;;0.32;;
47365;SDS011;33105;47.964;7.982;2023-03-12T06:33:17;0.90;;;0.20;;
47365;SDS011;33105;47.964;7.982;2023-03-12T06:36:19;0.55;;;0.30;;
47365;SDS011;33105;47.964;7.982;2023-03-12T06:39:20;0.52;;;0.50;;
47365;SDS011;33105;47.964;7.982;2023-03-12T06:42:21;0.20;;;0.20;;
47365;SDS011;33105;47.964;7.982;2023-03-12T06:45:23;3.42;;;0.50;;
47365;SDS011;33105;47.964;7.982;2023-03-12T06:48:25;1.63;;;0.40;;
47365;SDS011;33105;47.964;7.982;2023-03-12T06:51:27;0.82;;;0.43;;
47365;SDS011;33105;47.964;7.982;2023-03-12T06:54:28;4.68;;;0.40;;
47365;SDS011;33105;47.964;7.982;2023-03-12T06:57:29;0.47;;;0.30;;
47365;SDS011;33105;47.964;7.982;2023-03-12T07:00:31;1.27;;;0.25;;
47365;SDS011;33105;47.964;7.982;2023-03-12T07:03:32;1.95;;;0.60;;
47365;SDS011;33105;47.964;7.982;2023-03-12T07:06:34;2.58;;;0.60;;
47365;SDS011;33105;47.964;7.982;2023-03-12T07:09:35;3.72;;;0.52;;
47365;SDS011;33105;47.964;7.982;2023-03-12T07:12:37;1.02;;;0.40;;
47365;SDS011;33105;47.964;7.982;2023-03-12T07:15:38;1.83;;;0.50;;
47365;SDS011;33105;47.964;7.982;2023-03-12T07:18:39;3.45;;;0.50;;
47365;SDS011;33105;47.964;7.982;2023-03-12T07:21:40;1.35;;;0.47;;
47365;SDS011;33105;47.964;7.982;2023-03-12T07:24:41;5.43;;;2.20;;
47365;SDS011;33105;47.964;7.982;2023-03-12T07:27:42;7.15;;;3.60;;
47365;SDS011;33105;47.964;7.982;2023-03-12T07:30:44;1.23;;;0.60;;
47365;SDS011;33105;47.964;7.982;2023-03-12T07:33:50;0.98;;;0.50;;
47365;SDS011;33105;47.964;7.982;2023-03-12T07:36:51;2.95;;;0.80;;
47365;SDS011;33105;47.964;7.982;2023-03-12T07:39:52;2.00;;;0.43;;
47365;SDS011;33105;47.964;7.982;2023-03-12T07:42:54;3.13;;;0.93;;
47365;SDS011;33105;47.964;7.982;2023-03-12T07:45:56;2.35;;;0.77;;
47365;SDS011;33105;47.964;7.982;2023-03-12T07:48:57;5.55;;;0.95;;
47365;SDS011;33105;47.964;7.982;2023-03-12T07:51:58;3.90;;;1.05;;
47365;SDS011;33105;47.964;7.982;2023-03-12T07:54:59;6.28;;;1.20;;
47365;SDS011;33105;47.964;7.982;2023-03-12T07:58:00;3.00;;;0.90;;
47365;SDS011;33105;47.964;7.982;2023-03-12T08:01:02;4.35;;;0.80;;
47365;SDS011;33105;47.964;7.982;2023-03-12T08:04:03;4.45;;;0.90;;
47365;SDS011;33105;47.964;7.982;2023-03-12T08:07:04;4.32;;;1.05;;
47365;SDS011;33105;47.964;7.982;2023-03-12T08:10:06;2.63;;;0.88;;
47365;SDS011;33105;47.964;7.982;2023-03-12T08:13:08;8.07;;;1.17;;
47365;SDS011;33105;47.964;7.982;2023-03-12T08:16:10;2.97;;;0.82;;
47365;SDS011;33105;47.964;7.982;2023-03-12T08:19:11;4.93;;;0.80;;
47365;SDS011;33105;47.964;7.982;2023-03-12T08:22:13;3.97;;;0.80;;
47365;SDS011;33105;47.964;7.982;2023-03-12T08:25:14;3.35;;;0.70;;
47365;SDS011;33105;47.964;7.982;2023-03-12T08:28:16;4.80;;;0.95;;
47365;SDS011;33105;47.964;7.982;2023-03-12T08:31:17;3.63;;;1.08;;
47365;SDS011;33105;47.964;7.982;2023-03-12T08:34:19;3.50;;;0.90;;
47365;SDS011;33105;47.964;7.982;2023-03-12T08:37:20;4.25;;;0.77;;
47365;SDS011;33105;47.964;7.982;2023-03-12T08:40:23;5.22;;;1.13;;
47365;SDS011;33105;47.964;7.982;2023-03-12T08:43:24;1.45;;;0.80;;
47365;SDS011;33105;47.964;7.982;2023-03-12T08:46:27;5.07;;;0.88;;
47365;SDS011;33105;47.964;7.982;2023-03-12T08:49:29;3.65;;;0.68;;
47365;SDS011;33105;47.964;7.982;2023-03-12T08:52:30;4.13;;;1.90;;
47365;SDS011;33105;47.964;7.982;2023-03-12T08:55:31;8.45;;;1.48;;
47365;SDS011;33105;47.964;7.982;2023-03-12T08:58:33;1.48;;;0.85;;
47365;SDS011;33105;47.964;7.982;2023-03-12T09:01:34;4.85;;;1.20;;
47365;SDS011;33105;47.964;7.982;2023-03-12T09:04:35;2.45;;;0.95;;
47365;SDS011;33105;47.964;7.982;2023-03-12T09:07:37;3.08;;;0.90;;
47365;SDS011;33105;47.964;7.982;2023-03-12T09:10:38;2.17;;;0.90;;
47365;SDS011;33105;47.964;7.982;2023-03-12T09:13:42;2.72;;;0.77;;
47365;SDS011;33105;47.964;7.982;2023-03-12T09:16:44;4.30;;;1.80;;
47365;SDS011;33105;47.964;7.982;2023-03-12T09:19:46;6.00;;;2.35;;
47365;SDS011;33105;47.964;7.982;2023-03-12T09:22:47;1.88;;;1.02;;
47365;SDS011;33105;47.964;7.982;2023-03-12T09:25:49;2.92;;;1.52;;
47365;SDS011;33105;47.964;7.982;2023-03-12T09:28:51;4.60;;;1.67;;
47365;SDS011;33105;47.964;7.982;2023-03-12T09:31:52;4.68;;;2.13;;
47365;SDS011;33105;47.964;7.982;2023-03-12T09:34:54;2.97;;;1.55;;
47365;SDS011;33105;47.964;7.982;2023-03-12T09:37:55;3.83;;;2.47;;
47365;SDS011;33105;47.964;7.982;2023-03-12T09:40:56;1.77;;;1.15;;
47365;SDS011;33105;47.964;7.982;2023-03-12T09:44:03;3.60;;;1.95;;
47365;SDS011;33105;47.964;7.982;2023-03-12T09:47:17;1.80;;;1.38;;
47365;SDS011;33105;47.964;7.982;2023-03-12T09:53:41;1.52;;;0.75;;
47365;SDS011;33105;47.964;7.982;2023-03-12T09:56:49;1.05;;;0.73;;
47365;SDS011;33105;47.964;7.982;2023-03-12T09:59:53;0.85;;;0.57;;
47365;SDS011;33105;47.964;7.982;2023-03-12T10:06:20;3.47;;;1.15;;
47365;SDS011;33105;47.964;7.982;2023-03-12T10:09:47;2.80;;;1.10;;
47365;SDS011;33105;47.964;7.982;2023-03-12T10:13:08;1.55;;;0.95;;
47365;SDS011;33105;47.964;7.982;2023-03-12T10:22:59;1.48;;;0.45;;
47365;SDS011;33105;47.964;7.982;2023-03-12T10:26:11;1.50;;;0.57;;
47365;SDS011;33105;47.964;7.982;2023-03-12T10:29:30;1.48;;;0.40;;
47365;SDS011;33105;47.964;7.982;2023-03-12T10:32:37;0.95;;;0.57;;
47365;SDS011;33105;47.964;7.982;2023-03-12T10:35:41;0.75;;;0.30;;
47365;SDS011;33105;47.964;7.982;2023-03-12T10:38:43;0.43;;;0.40;;
47365;SDS011;33105;47.964;7.982;2023-03-12T10:41:45;0.55;;;0.30;;
47365;SDS011;33105;47.964;7.982;2023-03-12T10:44:48;0.90;;;0.30;;
47365;SDS011;33105;47.964;7.982;2023-03-12T10:47:56;1.95;;;0.40;;
47365;SDS011;33105;47.964;7.982;2023-03-12T10:54:19;1.63;;;0.75;;
47365;SDS011;33105;47.964;7.982;2023-03-12T10:57:22;1.35;;;0.45;;
47365;SDS011;33105;47.964;7.982;2023-03-12T11:00:40;2.10;;;0.38;;
47365;SDS011;33105;47.964;7.982;2023-03-12T11:03:41;1.17;;;0.50;;
47365;SDS011;33105;47.964;7.982;2023-03-12T11:07:01;3.28;;;0.75;;
47365;SDS011;33105;47.964;7.982;2023-03-12T11:13:23;3.78;;;0.60;;
47365;SDS011;33105;47.964;7.982;2023-03-12T11:16:34;1.10;;;0.50;;
47365;SDS011;33105;47.964;7.982;2023-03-12T11:19:36;2.70;;;0.70;;
47365;SDS011;33105;47.964;7.982;2023-03-12T11:22:37;1.65;;;0.80;;
47365;SDS011;33105;47.964;7.982;2023-03-12T11:25:38;4.95;;;0.73;;
47365;SDS011;33105;47.964;7.982;2023-03-12T11:28:40;2.45;;;1.00;;
47365;SDS011;33105;47.964;7.982;2023-03-12T11:31:47;2.42;;;0.95;;
47365;SDS011;33105;47.964;7.982;2023-03-12T11:35:07;4.97;;;0.90;;
47365;SDS011;33105;47.964;7.982;2023-03-12T11:38:20;2.63;;;1.02;;
47365;SDS011;33105;47.964;7.982;2023-03-12T12:12:45;5.40;;;1.45;;
47365;SDS011;33105;47.964;7.982;2023-03-12T12:16:11;8.75;;;1.88;;
47365;SDS011;33105;47.964;7.982;2023-03-12T12:26:43;8.80;;;1.88;;
47365;SDS011;33105;47.964;7.982;2023-03-12T12:33:03;8.88;;;1.40;;
47365;SDS011;33105;47.964;7.982;2023-03-12T12:36:32;7.03;;;1.33;;
47365;SDS011;33105;47.964;7.982;2023-03-12T12:39:35;7.45;;;1.40;;
47365;SDS011;33105;47.964;7.982;2023-03-12T12:42:58;6.68;;;1.45;;
47365;SDS011;33105;47.964;7.982;2023-03-12T12:46:11;10.35;;;1.63;;
47365;SDS011;33105;47.964;7.982;2023-03-12T12:52:23;4.32;;;1.20;;
47365;SDS011;33105;47.964;7.982;2023-03-12T12:55:34;8.45;;;1.35;;
47365;SDS011;33105;47.964;7.982;2023-03-12T13:01:58;7.35;;;1.40;;
47365;SDS011;33105;47.964;7.982;2023-03-12T13:05:01;4.80;;;1.13;;
47365;SDS011;33105;47.964;7.982;2023-03-12T13:08:04;6.60;;;1.33;;
47365;SDS011;33105;47.964;7.982;2023-03-12T13:14:18;5.60;;;1.13;;
47365;SDS011;33105;47.964;7.982;2023-03-12T13:24:01;6.20;;;1.67;;
47365;SDS011;33105;47.964;7.982;2023-03-12T13:27:16;8.30;;;1.55;;
47365;SDS011;33105;47.964;7.982;2023-03-12T13:33:36;8.35;;;1.63;;
47365;SDS011;33105;47.964;7.982;2023-03-12T13:36:45;9.43;;;2.03;;
47365;SDS011;33105;47.964;7.982;2023-03-12T13:46:38;11.05;;;1.63;;
47365;SDS011;33105;47.964;7.982;2023-03-12T13:49:56;6.63;;;2.25;;
47365;SDS011;33105;47.964;7.982;2023-03-12T13:53:07;7.13;;;1.33;;
47365;SDS011;33105;47.964;7.982;2023-03-12T13:56:16;9.73;;;1.90;;
47365;SDS011;33105;47.964;7.982;2023-03-12T13:59:58;9.82;;;2.42;;
47365;SDS011;33105;47.964;7.982;2023-03-12T14:03:04;6.32;;;1.63;;
47365;SDS011;33105;47.964;7.982;2023-03-12T14:06:12;10.93;;;2.30;;
47365;SDS011;33105;47.964;7.982;2023-03-12T14:10:03;10.95;;;1.50;;
47365;SDS011;33105;47.964;7.982;2023-03-12T14:12:48;7.47;;;1.80;;
47365;SDS011;33105;47.964;7.982;2023-03-12T14:19:25;10.30;;;2.33;;
47365;SDS011;33105;47.964;7.982;2023-03-12T14:22:32;12.43;;;1.92;;
47365;SDS011;33105;47.964;7.982;2023-03-12T14:25:38;7.40;;;2.22;;
47365;SDS011;33105;47.964;7.982;2023-03-12T14:29:24;12.13;;;2.15;;
47365;SDS011;33105;47.964;7.982;2023-03-12T14:32:22;6.80;;;1.65;;
47365;SDS011;33105;47.964;7.982;2023-03-12T14:35:33;8.82;;;2.00;;
47365;SDS011;33105;47.964;7.982;2023-03-12T14:38:42;10.40;;;2.17;;
47365;SDS011;33105;47.964;7.982;2023-03-12T14:41:44;9.27;;;2.13;;
47365;SDS011;33105;47.964;7.982;2023-03-12T14:44:57;9.93;;;1.70;;
47365;SDS011;33105;47.964;7.982;2023-03-12T14:48:03;7.75;;;1.88;;
47365;SDS011;33105;47.964;7.982;2023-03-12T14:51:06;10.85;;;2.33;;
47365;SDS011;33105;47.964;7.982;2023-03-12T14:54:20;7.78;;;1.92;;
47365;SDS011;33105;47.964;7.982;2023-03-12T14:57:28;10.05;;;2.00;;
47365;SDS011;33105;47.964;7.982;2023-03-12T15:00:32;10.75;;;1.60;;
47365;SDS011;33105;47.964;7.982;2023-03-12T15:03:41;6.90;;;1.83;;
47365;SDS011;33105;47.964;7.982;2023-03-12T15:07:12;10.32;;;1.85;;
47365;SDS011;33105;47.964;7.982;2023-03-12T15:11:21;8.60;;;2.10;;
47365;SDS011;33105;47.964;7.982;2023-03-12T15:14:25;13.93;;;2.30;;
47365;SDS011;33105;47.964;7.982;2023-03-12T15:17:32;11.23;;;2.08;;
47365;SDS011;33105;47.964;7.982;2023-03-12T15:20:35;8.38;;;2.20;;
47365;SDS011;33105;47.964;7.982;2023-03-12T15:23:37;13.15;;;3.03;;
47365;SDS011;33105;47.964;7.982;2023-03-12T15:26:42;10.27;;;2.55;;
47365;SDS011;33105;47.964;7.982;2023-03-12T15:29:46;11.95;;;2.47;;
47365;SDS011;33105;47.964;7.982;2023-03-12T15:39:24;15.73;;;3.28;;
47365;SDS011;33105;47.964;7.982;2023-03-12T15:45:36;12.80;;;4.05;;
47365;SDS011;33105;47.964;7.982;2023-03-12T15:48:49;10.50;;;2.50;;
47365;SDS011;33105;47.964;7.982;2023-03-12T15:51:57;14.02;;;2.38;;
47365;SDS011;33105;47.964;7.982;2023-03-12T15:58:26;9.98;;;2.50;;
47365;SDS011;33105;47.964;7.982;2023-03-12T16:01:44;8.88;;;1.85;;
47365;SDS011;33105;47.964;7.982;2023-03-12T16:04:47;8.32;;;2.03;;
47365;SDS011;33105;47.964;7.982;2023-03-12T16:08:15;11.40;;;2.00;;
47365;SDS011;33105;47.964;7.982;2023-03-12T16:11:36;11.88;;;2.58;;
47365;SDS011;33105;47.964;7.982;2023-03-12T16:14:38;11.07;;;2.17;;
47365;SDS011;33105;47.964;7.982;2023-03-12T16:17:39;6.68;;;1.65;;
47365;SDS011;33105;47.964;7.982;2023-03-12T16:20:41;16.50;;;2.85;;
47365;SDS011;33105;47.964;7.982;2023-03-12T16:23:43;12.38;;;2.30;;
47365;SDS011;33105;47.964;7.982;2023-03-12T16:26:46;12.05;;;2.30;;
47365;SDS011;33105;47.964;7.982;2023-03-12T16:29:56;17.25;;;3.00;;
47365;SDS011;33105;47.964;7.982;2023-03-12T16:32:58;12.95;;;2.58;;
47365;SDS011;33105;47.964;7.982;2023-03-12T16:36:00;18.33;;;2.92;;
47365;SDS011;33105;47.964;7.982;2023-03-12T16:39:02;17.35;;;2.63;;
47365;SDS011;33105;47.964;7.982;2023-03-12T16:42:16;17.63;;;2.90;;
47365;SDS011;33105;47.964;7.982;2023-03-12T16:45:19;9.45;;;2.38;;
47365;SDS011;33105;47.964;7.982;2023-03-12T16:48:22;11.32;;;2.83;;
47365;SDS011;33105;47.964;7.982;2023-03-12T16:51:24;30.45;;;13.00;;
47365;SDS011;33105;47.964;7.982;2023-03-12T16:54:28;25.35;;;9.57;;
47365;SDS011;33105;47.964;7.982;2023-03-12T16:57:34;14.75;;;2.90;;
47365;SDS011;33105;47.964;7.982;2023-03-12T17:00:37;8.90;;;2.45;;
47365;SDS011;33105;47.964;7.982;2023-03-12T17:03:40;15.23;;;2.58;;
47365;SDS011;33105;47.964;7.982;2023-03-12T17:06:43;8.32;;;2.50;;
47365;SDS011;33105;47.964;7.982;2023-03-12T17:09:44;11.43;;;2.38;;
47365;SDS011;33105;47.964;7.982;2023-03-12T17:16:00;14.40;;;3.13;;
47365;SDS011;33105;47.964;7.982;2023-03-12T17:19:04;13.32;;;2.65;;
47365;SDS011;33105;47.964;7.982;2023-03-12T17:22:05;14.95;;;3.25;;
47365;SDS011;33105;47.964;7.982;2023-03-12T17:25:09;15.20;;;2.72;;
47365;SDS011;33105;47.964;7.982;2023-03-12T17:28:25;13.05;;;3.45;;
47365;SDS011;33105;47.964;7.982;2023-03-12T17:31:26;10.65;;;2.53;;
47365;SDS011;33105;47.964;7.982;2023-03-12T17:34:28;9.90;;;2.60;;
47365;SDS011;33105;47.964;7.982;2023-03-12T17:37:29;9.23;;;2.38;;
47365;SDS011;33105;47.964;7.982;2023-03-12T17:40:31;12.60;;;2.25;;
47365;SDS011;33105;47.964;7.982;2023-03-12T17:43:32;10.98;;;2.10;;
47365;SDS011;33105;47.964;7.982;2023-03-12T17:46:34;14.85;;;3.63;;
47365;SDS011;33105;47.964;7.982;2023-03-12T17:49:37;12.15;;;2.63;;
47365;SDS011;33105;47.964;7.982;2023-03-12T17:52:39;9.27;;;2.58;;
47365;SDS011;33105;47.964;7.982;2023-03-12T17:55:40;9.13;;;2.85;;
47365;SDS011;33105;47.964;7.982;2023-03-12T17:58:42;15.68;;;3.33;;
47365;SDS011;33105;47.964;7.982;2023-03-12T18:01:44;13.13;;;3.00;;
47365;SDS011;33105;47.964;7.982;2023-03-12T18:04:45;15.02;;;2.97;;
47365;SDS011;33105;47.964;7.982;2023-03-12T18:07:46;15.38;;;2.75;;
47365;SDS011;33105;47.964;7.982;2023-03-12T18:10:49;50.75;;;14.55;;
47365;SDS011;33105;47.964;7.982;2023-03-12T18:13:50;24.25;;;3.55;;
47365;SDS011;33105;47.964;7.982;2023-03-12T18:16:51;15.95;;;4.20;;
47365;SDS011;33105;47.964;7.982;2023-03-12T18:19:52;19.42;;;5.28;;
47365;SDS011;33105;47.964;7.982;2023-03-12T18:22:54;20.08;;;3.33;;
47365;SDS011;33105;47.964;7.982;2023-03-12T18:25:55;17.08;;;4.20;;
47365;SDS011;33105;47.964;7.982;2023-03-12T18:28:56;20.98;;;4.22;;
47365;SDS011;33105;47.964;7.982;2023-03-12T18:31:59;19.35;;;5.75;;
47365;SDS011;33105;47.964;7.982;2023-03-12T18:35:00;14.32;;;3.20;;
47365;SDS011;33105;47.964;7.982;2023-03-12T18:38:01;15.13;;;3.92;;
47365;SDS011;33105;47.964;7.982;2023-03-12T18:41:09;16.38;;;4.03;;
47365;SDS011;33105;47.964;7.982;2023-03-12T18:44:12;20.30;;;3.50;;
47365;SDS011;33105;47.964;7.982;2023-03-12T18:47:13;13.02;;;3.35;;
47365;SDS011;33105;47.964;7.982;2023-03-12T18:50:14;17.85;;;4.47;;
47365;SDS011;33105;47.964;7.982;2023-03-12T18:53:15;22.10;;;7.15;;
47365;SDS011;33105;47.964;7.982;2023-03-12T18:56:17;22.08;;;5.80;;
47365;SDS011;33105;47.964;7.982;2023-03-12T18:59:18;25.08;;;5.10;;
47365;SDS011;33105;47.964;7.982;2023-03-12T19:02:19;24.35;;;3.78;;
47365;SDS011;33105;47.964;7.982;2023-03-12T19:05:20;16.38;;;3.38;;
47365;SDS011;33105;47.964;7.982;2023-03-12T19:08:21;14.60;;;3.80;;
47365;SDS011;33105;47.964;7.982;2023-03-12T19:11:22;18.83;;;3.83;;
47365;SDS011;33105;47.964;7.982;2023-03-12T19:14:25;14.02;;;3.15;;
47365;SDS011;33105;47.964;7.982;2023-03-12T19:17:26;15.88;;;3.00;;
47365;SDS011;33105;47.964;7.982;2023-03-12T19:20:28;14.13;;;3.00;;
47365;SDS011;33105;47.964;7.982;2023-03-12T19:23:30;17.38;;;3.83;;
47365;SDS011;33105;47.964;7.982;2023-03-12T19:26:31;18.33;;;3.53;;
47365;SDS011;33105;47.964;7.982;2023-03-12T19:29:32;19.40;;;6.00;;
47365;SDS011;33105;47.964;7.982;2023-03-12T19:32:33;18.85;;;4.20;;
47365;SDS011;33105;47.964;7.982;2023-03-12T19:35:38;19.70;;;5.60;;
47365;SDS011;33105;47.964;7.982;2023-03-12T19:38:41;20.13;;;3.65;;
47365;SDS011;33105;47.964;7.982;2023-03-12T19:41:42;15.85;;;2.88;;
47365;SDS011;33105;47.964;7.982;2023-03-12T19:44:43;15.57;;;3.47;;
47365;SDS011;33105;47.964;7.982;2023-03-12T19:47:44;12.13;;;3.03;;
47365;SDS011;33105;47.964;7.982;2023-03-12T19:50:45;13.05;;;3.35;;
47365;SDS011;33105;47.964;7.982;2023-03-12T19:53:47;15.02;;;2.80;;
47365;SDS011;33105;47.964;7.982;2023-03-12T19:56:48;19.70;;;3.33;;
47365;SDS011;33105;47.964;7.982;2023-03-12T19:59:49;11.45;;;2.28;;
47365;SDS011;33105;47.964;7.982;2023-03-12T20:02:50;14.85;;;3.60;;
47365;SDS011;33105;47.964;7.982;2023-03-12T20:05:51;19.33;;;3.30;;
47365;SDS011;33105;47.964;7.982;2023-03-12T20:08:53;20.65;;;3.53;;
47365;SDS011;33105;47.964;7.982;2023-03-12T20:11:54;16.13;;;3.20;;
47365;SDS011;33105;47.964;7.982;2023-03-12T20:14:58;16.05;;;3.42;;
47365;SDS011;33105;47.964;7.982;2023-03-12T20:17:59;13.75;;;2.72;;
47365;SDS011;33105;47.964;7.982;2023-03-12T20:21:00;20.38;;;2.97;;
47365;SDS011;33105;47.964;7.982;2023-03-12T20:24:01;13.10;;;3.10;;
47365;SDS011;33105;47.964;7.982;2023-03-12T20:27:03;14.18;;;2.95;;
47365;SDS011;33105;47.964;7.982;2023-03-12T20:30:04;17.38;;;3.28;;
47365;SDS011;33105;47.964;7.982;2023-03-12T20:33:06;12.80;;;2.78;;
47365;SDS011;33105;47.964;7.982;2023-03-12T20:36:11;13.90;;;2.50;;
47365;SDS011;33105;47.964;7.982;2023-03-12T20:39:13;19.40;;;2.88;;
47365;SDS011;33105;47.964;7.982;2023-03-12T20:42:14;12.38;;;2.58;;
47365;SDS011;33105;47.964;7.982;2023-03-12T20:45:15;10.50;;;2.17;;
47365;SDS011;33105;47.964;7.982;2023-03-12T20:48:16;13.07;;;3.75;;
47365;SDS011;33105;47.964;7.982;2023-03-12T20:51:18;10.90;;;2.28;;
47365;SDS011;33105;47.964;7.982;2023-03-12T20:54:19;15.20;;;2.70;;
47365;SDS011;33105;47.964;7.982;2023-03-12T20:57:20;16.70;;;2.80;;
47365;SDS011;33105;47.964;7.982;2023-03-12T21:00:21;12.75;;;2.45;;
47365;SDS011;33105;47.964;7.982;2023-03-12T21:03:22;11.32;;;2.63;;
47365;SDS011;33105;47.964;7.982;2023-03-12T21:06:25;12.95;;;2.60;;
47365;SDS011;33105;47.964;7.982;2023-03-12T21:09:26;14.02;;;2.60;;
47365;SDS011;33105;47.964;7.982;2023-03-12T21:12:27;15.00;;;5.13;;
47365;SDS011;33105;47.964;7.982;2023-03-12T21:15:29;21.13;;;5.82;;
47365;SDS011;33105;47.964;7.982;2023-03-12T21:18:30;10.45;;;1.95;;
47365;SDS011;33105;47.964;7.982;2023-03-12T21:21:32;15.35;;;2.35;;
47365;SDS011;33105;47.964;7.982;2023-03-12T21:24:36;16.13;;;4.03;;
47365;SDS011;33105;47.964;7.982;2023-03-12T21:27:37;29.75;;;10.80;;
47365;SDS011;33105;47.964;7.982;2023-03-12T21:30:38;10.50;;;2.72;;
47365;SDS011;33105;47.964;7.982;2023-03-12T21:33:39;14.13;;;3.13;;
47365;SDS011;33105;47.964;7.982;2023-03-12T21:36:41;8.18;;;1.95;;
47365;SDS011;33105;47.964;7.982;2023-03-12T21:39:42;11.15;;;2.25;;
47365;SDS011;33105;47.964;7.982;2023-03-12T21:42:43;10.68;;;1.90;;